sensor_id;sensor_type;location;lat;lon;timestamp;pressure;altitude;pressure_sealevel;temperature;humidity
69570;BME280;56781;42.292;23.146;2023-05-25T00:01:04;95480.31;;;11.37;100.00
69570;BME280;56781;42.292;23.146;2023-05-25T00:03:32;95471.94;;;10.71;100.00
69570;BME280;56781;42.292;23.146;2023-05-25T00:06:00;95478.25;;;10.38;100.00
69570;BME280;56781;42.292;23.146;2023-05-25T00:08:28;95492.00;;;10.18;100.00
69570;BME280;56781;42.292;23.146;2023-05-25T00:10:55;95473.38;;;10.27;100.00
69570;BME280;56781;42.292;23.146;2023-05-25T00:13:23;95495.75;;;10.17;100.00
69570;BME280;56781;42.292;23.146;2023-05-25T00:15:50;95462.88;;;9.89;100.00
69570;BME280;56781;42.292;23.146;2023-05-25T00:18:17;95494.56;;;10.09;100.00
69570;BME280;56781;42.292;23.146;2023-05-25T00:20:44;95485.06;;;9.89;100.00
69570;BME280;56781;42.292;23.146;2023-05-25T00:23:13;95495.16;;;10.06;100.00
69570;BME280;56781;42.292;23.146;2023-05-25T00:25:40;95479.94;;;10.20;100.00
69570;BME280;56781;42.292;23.146;2023-05-25T00:28:10;95484.09;;;10.40;100.00
69570;BME280;56781;42.292;23.146;2023-05-25T00:30:37;95483.56;;;10.52;100.00
69570;BME280;56781;42.292;23.146;2023-05-25T00:33:04;95476.78;;;10.32;100.00
69570;BME280;56781;42.292;23.146;2023-05-25T00:35:32;95478.56;;;10.37;100.00
69570;BME280;56781;42.292;23.146;2023-05-25T00:37:59;95496.94;;;10.25;100.00
69570;BME280;56781;42.292;23.146;2023-05-25T00:40:26;95493.41;;;10.15;100.00
69570;BME280;56781;42.292;23.146;2023-05-25T00:42:54;95503.50;;;9.91;100.00
69570;BME280;56781;42.292;23.146;2023-05-25T00:45:22;95490.97;;;9.26;100.00
69570;BME280;56781;42.292;23.146;2023-05-25T00:47:50;95518.28;;;9.56;100.00
69570;BME280;56781;42.292;23.146;2023-05-25T00:50:22;95493.22;;;9.19;100.00
69570;BME280;56781;42.292;23.146;2023-05-25T00:52:56;95503.75;;;9.29;100.00
69570;BME280;56781;42.292;23.146;2023-05-25T00:55:24;95491.56;;;9.23;100.00
69570;BME280;56781;42.292;23.146;2023-05-25T00:57:56;95509.56;;;9.50;100.00
69570;BME280;56781;42.292;23.146;2023-05-25T01:00:28;95500.59;;;9.41;100.00
69570;BME280;56781;42.292;23.146;2023-05-25T01:02:57;95510.66;;;9.30;100.00
69570;BME280;56781;42.292;23.146;2023-05-25T01:05:26;95508.31;;;9.09;100.00
69570;BME280;56781;42.292;23.146;2023-05-25T01:07:58;95503.25;;;8.89;100.00
69570;BME280;56781;42.292;23.146;2023-05-25T01:10:30;95514.25;;;8.87;100.00
69570;BME280;56781;42.292;23.146;2023-05-25T01:13:01;95512.94;;;8.66;100.00
69570;BME280;56781;42.292;23.146;2023-05-25T01:15:32;95508.91;;;8.87;100.00
69570;BME280;56781;42.292;23.146;2023-05-25T01:17:59;95513.50;;;9.01;100.00
69570;BME280;56781;42.292;23.146;2023-05-25T01:20:27;95519.84;;;9.24;100.00
69570;BME280;56781;42.292;23.146;2023-05-25T01:25:35;95503.50;;;9.25;100.00
69570;BME280;56781;42.292;23.146;2023-05-25T01:28:08;95525.94;;;9.43;100.00
69570;BME280;56781;42.292;23.146;2023-05-25T01:30:39;95531.88;;;9.73;100.00
69570;BME280;56781;42.292;23.146;2023-05-25T01:33:09;95518.59;;;9.35;100.00
69570;BME280;56781;42.292;23.146;2023-05-25T01:35:37;95513.81;;;8.80;100.00
69570;BME280;56781;42.292;23.146;2023-05-25T01:38:06;95518.59;;;8.35;100.00
69570;BME280;56781;42.292;23.146;2023-05-25T01:40:34;95540.72;;;8.36;100.00
69570;BME280;56781;42.292;23.146;2023-05-25T01:43:01;95516.00;;;8.54;100.00
69570;BME280;56781;42.292;23.146;2023-05-25T01:45:29;95509.97;;;8.68;100.00
69570;BME280;56781;42.292;23.146;2023-05-25T01:48:24;95528.22;;;8.98;100.00
69570;BME280;56781;42.292;23.146;2023-05-25T01:51:08;95527.06;;;9.04;100.00
69570;BME280;56781;42.292;23.146;2023-05-25T01:53:42;95502.09;;;8.76;100.00
69570;BME280;56781;42.292;23.146;2023-05-25T01:56:12;95513.06;;;8.56;100.00
69570;BME280;56781;42.292;23.146;2023-05-25T01:58:44;95509.78;;;8.16;100.00
69570;BME280;56781;42.292;23.146;2023-05-25T02:01:13;95509.59;;;8.31;100.00
69570;BME280;56781;42.292;23.146;2023-05-25T02:03:41;95498.22;;;8.02;100.00
69570;BME280;56781;42.292;23.146;2023-05-25T02:06:10;95511.34;;;8.17;100.00
69570;BME280;56781;42.292;23.146;2023-05-25T02:08:38;95513.06;;;8.32;100.00
69570;BME280;56781;42.292;23.146;2023-05-25T02:11:05;95514.63;;;8.57;100.00
69570;BME280;56781;42.292;23.146;2023-05-25T02:13:32;95543.72;;;8.58;100.00
69570;BME280;56781;42.292;23.146;2023-05-25T02:15:59;95538.31;;;8.15;100.00
69570;BME280;56781;42.292;23.146;2023-05-25T02:18:27;95510.91;;;8.10;100.00
69570;BME280;56781;42.292;23.146;2023-05-25T02:20:54;95518.56;;;8.40;100.00
69570;BME280;56781;42.292;23.146;2023-05-25T02:23:22;95524.31;;;8.53;100.00
69570;BME280;56781;42.292;23.146;2023-05-25T02:25:49;95534.47;;;8.51;100.00
69570;BME280;56781;42.292;23.146;2023-05-25T02:28:17;95537.13;;;8.27;100.00
69570;BME280;56781;42.292;23.146;2023-05-25T02:30:44;95543.47;;;8.07;100.00
69570;BME280;56781;42.292;23.146;2023-05-25T02:33:11;95538.47;;;8.24;100.00
69570;BME280;56781;42.292;23.146;2023-05-25T02:35:39;95539.66;;;8.13;100.00
69570;BME280;56781;42.292;23.146;2023-05-25T02:38:07;95555.81;;;7.97;100.00
69570;BME280;56781;42.292;23.146;2023-05-25T02:40:35;95560.88;;;7.70;100.00
69570;BME280;56781;42.292;23.146;2023-05-25T02:43:02;95564.63;;;7.69;100.00
69570;BME280;56781;42.292;23.146;2023-05-25T02:45:29;95552.63;;;7.71;100.00
69570;BME280;56781;42.292;23.146;2023-05-25T02:47:56;95550.00;;;7.66;100.00
69570;BME280;56781;42.292;23.146;2023-05-25T02:50:23;95557.38;;;7.40;100.00
69570;BME280;56781;42.292;23.146;2023-05-25T02:52:50;95576.63;;;7.66;100.00
69570;BME280;56781;42.292;23.146;2023-05-25T02:55:18;95573.97;;;7.95;100.00
69570;BME280;56781;42.292;23.146;2023-05-25T02:57:45;95562.75;;;7.98;100.00
69570;BME280;56781;42.292;23.146;2023-05-25T03:00:12;95556.38;;;7.94;100.00
69570;BME280;56781;42.292;23.146;2023-05-25T03:02:40;95565.00;;;7.86;100.00
69570;BME280;56781;42.292;23.146;2023-05-25T03:05:07;95562.88;;;7.83;100.00
69570;BME280;56781;42.292;23.146;2023-05-25T03:07:34;95562.66;;;7.50;100.00
69570;BME280;56781;42.292;23.146;2023-05-25T03:10:02;95573.00;;;7.18;100.00
69570;BME280;56781;42.292;23.146;2023-05-25T03:12:29;95575.66;;;7.18;100.00
69570;BME280;56781;42.292;23.146;2023-05-25T03:14:56;95593.56;;;7.46;100.00
69570;BME280;56781;42.292;23.146;2023-05-25T03:17:23;95576.34;;;7.33;100.00
69570;BME280;56781;42.292;23.146;2023-05-25T03:19:51;95578.50;;;7.31;100.00
69570;BME280;56781;42.292;23.146;2023-05-25T03:22:18;95585.75;;;7.21;100.00
69570;BME280;56781;42.292;23.146;2023-05-25T03:24:46;95580.91;;;7.33;100.00
69570;BME280;56781;42.292;23.146;2023-05-25T03:27:15;95579.13;;;7.58;100.00
69570;BME280;56781;42.292;23.146;2023-05-25T03:29:42;95578.66;;;7.80;100.00
69570;BME280;56781;42.292;23.146;2023-05-25T03:32:09;95587.25;;;8.00;100.00
69570;BME280;56781;42.292;23.146;2023-05-25T03:34:36;95611.94;;;8.40;100.00
69570;BME280;56781;42.292;23.146;2023-05-25T03:37:04;95606.34;;;8.42;100.00
69570;BME280;56781;42.292;23.146;2023-05-25T03:39:31;95599.75;;;8.29;100.00
69570;BME280;56781;42.292;23.146;2023-05-25T03:41:58;95621.47;;;8.47;100.00
69570;BME280;56781;42.292;23.146;2023-05-25T03:44:26;95600.50;;;8.35;100.00
69570;BME280;56781;42.292;23.146;2023-05-25T03:46:53;95613.31;;;8.33;100.00
69570;BME280;56781;42.292;23.146;2023-05-25T03:49:21;95611.88;;;8.16;100.00
69570;BME280;56781;42.292;23.146;2023-05-25T03:51:48;95597.03;;;8.10;100.00
69570;BME280;56781;42.292;23.146;2023-05-25T03:54:15;95595.47;;;8.33;100.00
69570;BME280;56781;42.292;23.146;2023-05-25T03:56:42;95628.84;;;8.55;100.00
69570;BME280;56781;42.292;23.146;2023-05-25T03:59:09;95593.72;;;8.48;100.00
69570;BME280;56781;42.292;23.146;2023-05-25T04:01:36;95613.00;;;8.87;100.00
69570;BME280;56781;42.292;23.146;2023-05-25T04:04:04;95591.31;;;8.70;100.00
69570;BME280;56781;42.292;23.146;2023-05-25T04:06:32;95588.75;;;9.03;100.00
69570;BME280;56781;42.292;23.146;2023-05-25T04:09:03;95598.47;;;9.37;100.00
69570;BME280;56781;42.292;23.146;2023-05-25T04:11:30;95600.66;;;9.67;100.00
69570;BME280;56781;42.292;23.146;2023-05-25T04:13:58;95593.72;;;9.99;100.00
69570;BME280;56781;42.292;23.146;2023-05-25T04:16:25;95597.63;;;10.20;100.00
69570;BME280;56781;42.292;23.146;2023-05-25T04:18:53;95602.34;;;10.56;100.00
69570;BME280;56781;42.292;23.146;2023-05-25T04:21:20;95600.16;;;10.86;100.00
69570;BME280;56781;42.292;23.146;2023-05-25T04:23:47;95620.03;;;11.21;100.00
69570;BME280;56781;42.292;23.146;2023-05-25T04:26:15;95622.31;;;11.28;100.00
69570;BME280;56781;42.292;23.146;2023-05-25T04:28:42;95607.78;;;10.93;100.00
69570;BME280;56781;42.292;23.146;2023-05-25T04:31:10;95625.09;;;11.23;100.00
69570;BME280;56781;42.292;23.146;2023-05-25T04:33:38;95628.28;;;11.25;100.00
69570;BME280;56781;42.292;23.146;2023-05-25T04:36:07;95616.41;;;11.40;100.00
69570;BME280;56781;42.292;23.146;2023-05-25T04:38:37;95609.03;;;11.59;100.00
69570;BME280;56781;42.292;23.146;2023-05-25T04:41:04;95625.13;;;12.04;100.00
69570;BME280;56781;42.292;23.146;2023-05-25T04:43:32;95622.06;;;12.19;100.00
69570;BME280;56781;42.292;23.146;2023-05-25T04:46:00;95628.47;;;12.10;100.00
69570;BME280;56781;42.292;23.146;2023-05-25T04:48:27;95641.69;;;12.60;100.00
69570;BME280;56781;42.292;23.146;2023-05-25T04:50:54;95641.84;;;12.95;100.00
69570;BME280;56781;42.292;23.146;2023-05-25T04:53:22;95630.00;;;13.04;100.00
69570;BME280;56781;42.292;23.146;2023-05-25T04:55:49;95630.56;;;13.50;100.00
69570;BME280;56781;42.292;23.146;2023-05-25T04:58:17;95642.78;;;13.82;97.89
69570;BME280;56781;42.292;23.146;2023-05-25T05:00:44;95616.16;;;14.07;95.95
69570;BME280;56781;42.292;23.146;2023-05-25T05:03:12;95628.13;;;14.44;95.73
69570;BME280;56781;42.292;23.146;2023-05-25T05:05:39;95625.81;;;14.72;95.85
69570;BME280;56781;42.292;23.146;2023-05-25T05:08:07;95627.75;;;16.15;90.56
69570;BME280;56781;42.292;23.146;2023-05-25T05:10:34;95640.28;;;17.39;81.75
69570;BME280;56781;42.292;23.146;2023-05-25T05:13:01;95608.41;;;18.29;78.04
69570;BME280;56781;42.292;23.146;2023-05-25T05:15:28;95614.91;;;18.56;76.61
69570;BME280;56781;42.292;23.146;2023-05-25T05:17:55;95620.84;;;18.90;73.96
69570;BME280;56781;42.292;23.146;2023-05-25T05:20:22;95612.22;;;20.71;68.76
69570;BME280;56781;42.292;23.146;2023-05-25T05:22:50;95607.78;;;20.21;68.02
69570;BME280;56781;42.292;23.146;2023-05-25T05:25:18;95610.81;;;20.58;66.66
69570;BME280;56781;42.292;23.146;2023-05-25T05:27:45;95623.63;;;20.57;66.56
69570;BME280;56781;42.292;23.146;2023-05-25T05:30:13;95625.38;;;21.68;62.83
69570;BME280;56781;42.292;23.146;2023-05-25T05:32:40;95627.38;;;21.45;61.89
69570;BME280;56781;42.292;23.146;2023-05-25T05:35:07;95618.78;;;22.74;57.59
69570;BME280;56781;42.292;23.146;2023-05-25T05:37:34;95613.38;;;23.85;53.40
69570;BME280;56781;42.292;23.146;2023-05-25T05:40:02;95594.91;;;25.09;49.37
69570;BME280;56781;42.292;23.146;2023-05-25T05:42:30;95612.13;;;24.84;50.73
69570;BME280;56781;42.292;23.146;2023-05-25T05:44:57;95598.06;;;26.45;47.26
69570;BME280;56781;42.292;23.146;2023-05-25T06:01:46;95593.25;;;24.40;51.43
69570;BME280;56781;42.292;23.146;2023-05-25T06:04:13;95583.19;;;25.01;48.90
69570;BME280;56781;42.292;23.146;2023-05-25T06:06:41;95610.59;;;25.08;50.67
69570;BME280;56781;42.292;23.146;2023-05-25T06:09:10;95600.78;;;25.07;48.72
69570;BME280;56781;42.292;23.146;2023-05-25T06:11:38;95596.44;;;25.56;47.04
69570;BME280;56781;42.292;23.146;2023-05-25T06:14:05;95591.09;;;26.30;45.68
69570;BME280;56781;42.292;23.146;2023-05-25T06:16:32;95591.84;;;26.38;45.45
69570;BME280;56781;42.292;23.146;2023-05-25T06:19:00;95592.66;;;26.31;45.30
69570;BME280;56781;42.292;23.146;2023-05-25T06:21:27;95593.16;;;26.12;49.54
69570;BME280;56781;42.292;23.146;2023-05-25T06:23:54;95590.50;;;25.83;49.73
69570;BME280;56781;42.292;23.146;2023-05-25T06:26:23;95601.47;;;25.76;47.58
69570;BME280;56781;42.292;23.146;2023-05-25T06:28:50;95592.94;;;26.58;45.45
69570;BME280;56781;42.292;23.146;2023-05-25T06:31:17;95606.03;;;26.95;43.68
69570;BME280;56781;42.292;23.146;2023-05-25T06:33:45;95589.41;;;27.10;44.31
69570;BME280;56781;42.292;23.146;2023-05-25T06:36:12;95585.81;;;27.61;43.20
69570;BME280;56781;42.292;23.146;2023-05-25T06:38:41;95583.25;;;28.16;42.28
69570;BME280;56781;42.292;23.146;2023-05-25T06:41:08;95593.53;;;28.39;42.02
69570;BME280;56781;42.292;23.146;2023-05-25T06:43:38;95583.25;;;27.81;41.22
69570;BME280;56781;42.292;23.146;2023-05-25T06:46:05;95576.16;;;28.15;40.79
69570;BME280;56781;42.292;23.146;2023-05-25T06:48:32;95579.59;;;28.22;40.04
69570;BME280;56781;42.292;23.146;2023-05-25T06:50:59;95580.91;;;27.76;44.77
69570;BME280;56781;42.292;23.146;2023-05-25T06:53:27;95576.47;;;27.52;43.36
69570;BME280;56781;42.292;23.146;2023-05-25T06:55:54;95582.69;;;27.59;42.84
69570;BME280;56781;42.292;23.146;2023-05-25T06:58:21;95585.16;;;27.88;41.96
69570;BME280;56781;42.292;23.146;2023-05-25T07:00:48;95575.69;;;27.51;43.80
69570;BME280;56781;42.292;23.146;2023-05-25T07:03:15;95583.91;;;27.93;42.43
69570;BME280;56781;42.292;23.146;2023-05-25T07:05:42;95573.06;;;27.40;43.13
69570;BME280;56781;42.292;23.146;2023-05-25T07:08:10;95575.63;;;25.77;48.22
69570;BME280;56781;42.292;23.146;2023-05-25T07:10:37;95588.09;;;25.99;48.86
69570;BME280;56781;42.292;23.146;2023-05-25T07:13:04;95571.16;;;26.19;47.60
69570;BME280;56781;42.292;23.146;2023-05-25T07:15:31;95571.41;;;27.02;46.80
69570;BME280;56781;42.292;23.146;2023-05-25T07:17:58;95562.19;;;26.15;47.87
69570;BME280;56781;42.292;23.146;2023-05-25T07:20:25;95573.44;;;26.35;49.86
69570;BME280;56781;42.292;23.146;2023-05-25T07:22:53;95563.81;;;25.94;47.71
69570;BME280;56781;42.292;23.146;2023-05-25T07:25:20;95575.06;;;26.21;49.14
69570;BME280;56781;42.292;23.146;2023-05-25T07:27:48;95556.22;;;27.35;44.79
69570;BME280;56781;42.292;23.146;2023-05-25T07:30:21;95571.34;;;27.54;44.08
69570;BME280;56781;42.292;23.146;2023-05-25T07:32:48;95548.56;;;27.91;43.40
69570;BME280;56781;42.292;23.146;2023-05-25T07:35:15;95563.38;;;27.63;43.26
69570;BME280;56781;42.292;23.146;2023-05-25T07:37:42;95557.41;;;27.34;43.47
69570;BME280;56781;42.292;23.146;2023-05-25T07:40:10;95560.34;;;25.72;48.16
69570;BME280;56781;42.292;23.146;2023-05-25T07:42:37;95565.84;;;24.11;52.37
69570;BME280;56781;42.292;23.146;2023-05-25T07:45:04;95565.94;;;24.72;53.33
69570;BME280;56781;42.292;23.146;2023-05-25T07:47:32;95566.63;;;25.73;51.39
69570;BME280;56781;42.292;23.146;2023-05-25T07:49:59;95564.19;;;26.03;49.87
69570;BME280;56781;42.292;23.146;2023-05-25T07:52:26;95561.25;;;25.37;51.20
69570;BME280;56781;42.292;23.146;2023-05-25T07:54:53;95583.19;;;25.12;52.33
69570;BME280;56781;42.292;23.146;2023-05-25T07:57:21;95568.16;;;24.13;56.22
69570;BME280;56781;42.292;23.146;2023-05-25T07:59:48;95570.53;;;24.10;55.68
69570;BME280;56781;42.292;23.146;2023-05-25T08:02:15;95570.22;;;24.44;56.03
69570;BME280;56781;42.292;23.146;2023-05-25T08:04:42;95581.59;;;24.57;53.76
69570;BME280;56781;42.292;23.146;2023-05-25T08:07:10;95591.38;;;23.60;57.34
69570;BME280;56781;42.292;23.146;2023-05-25T08:09:37;95579.13;;;22.84;59.67
69570;BME280;56781;42.292;23.146;2023-05-25T08:12:04;95602.28;;;22.23;63.35
69570;BME280;56781;42.292;23.146;2023-05-25T08:14:51;95588.38;;;21.67;65.66
69570;BME280;56781;42.292;23.146;2023-05-25T08:17:20;95590.81;;;21.76;65.06
69570;BME280;56781;42.292;23.146;2023-05-25T08:19:48;95599.06;;;22.13;65.53
69570;BME280;56781;42.292;23.146;2023-05-25T08:22:15;95583.84;;;21.49;66.41
69570;BME280;56781;42.292;23.146;2023-05-25T08:24:42;95594.84;;;21.86;66.17
69570;BME280;56781;42.292;23.146;2023-05-25T08:27:10;95569.53;;;22.60;63.06
69570;BME280;56781;42.292;23.146;2023-05-25T08:29:37;95571.81;;;23.58;59.43
69570;BME280;56781;42.292;23.146;2023-05-25T08:32:05;95586.41;;;23.76;54.89
69570;BME280;56781;42.292;23.146;2023-05-25T08:34:32;95575.69;;;24.41;53.44
69570;BME280;56781;42.292;23.146;2023-05-25T08:36:59;95577.47;;;23.94;56.99
69570;BME280;56781;42.292;23.146;2023-05-25T08:39:26;95582.13;;;23.82;58.79
69570;BME280;56781;42.292;23.146;2023-05-25T08:41:53;95582.41;;;23.66;56.35
69570;BME280;56781;42.292;23.146;2023-05-25T08:44:21;95575.97;;;23.34;54.29
69570;BME280;56781;42.292;23.146;2023-05-25T08:46:48;95573.88;;;23.72;55.14
69570;BME280;56781;42.292;23.146;2023-05-25T08:49:16;95607.19;;;23.95;52.33
69570;BME280;56781;42.292;23.146;2023-05-25T08:51:50;95588.03;;;23.92;52.63
69570;BME280;56781;42.292;23.146;2023-05-25T08:54:21;95577.41;;;23.76;51.06
69570;BME280;56781;42.292;23.146;2023-05-25T08:56:54;95588.22;;;23.58;51.28
69570;BME280;56781;42.292;23.146;2023-05-25T08:59:46;95592.16;;;22.61;52.28
69570;BME280;56781;42.292;23.146;2023-05-25T09:05:07;95581.41;;;21.40;57.11
69570;BME280;56781;42.292;23.146;2023-05-25T09:07:34;95583.31;;;21.13;58.76
69570;BME280;56781;42.292;23.146;2023-05-25T09:10:02;95596.06;;;20.82;61.94
69570;BME280;56781;42.292;23.146;2023-05-25T09:12:33;95588.88;;;20.51;65.70
69570;BME280;56781;42.292;23.146;2023-05-25T09:15:02;95598.84;;;20.20;66.81
69570;BME280;56781;42.292;23.146;2023-05-25T09:17:30;95569.91;;;19.54;67.79
69570;BME280;56781;42.292;23.146;2023-05-25T09:19:58;95590.50;;;19.55;68.86
69570;BME280;56781;42.292;23.146;2023-05-25T09:22:25;95592.06;;;19.56;68.93
69570;BME280;56781;42.292;23.146;2023-05-25T09:24:52;95598.00;;;19.42;71.61
69570;BME280;56781;42.292;23.146;2023-05-25T09:27:21;95589.63;;;19.15;70.52
69570;BME280;56781;42.292;23.146;2023-05-25T09:29:49;95589.38;;;19.04;71.53
69570;BME280;56781;42.292;23.146;2023-05-25T09:32:18;95588.88;;;18.83;73.30
69570;BME280;56781;42.292;23.146;2023-05-25T09:34:46;95584.44;;;18.75;75.67
69570;BME280;56781;42.292;23.146;2023-05-25T09:37:16;95588.94;;;18.39;77.04
69570;BME280;56781;42.292;23.146;2023-05-25T09:39:47;95604.72;;;18.05;80.14
69570;BME280;56781;42.292;23.146;2023-05-25T09:42:15;95609.28;;;17.89;82.25
69570;BME280;56781;42.292;23.146;2023-05-25T09:44:42;95602.69;;;17.62;83.73
69570;BME280;56781;42.292;23.146;2023-05-25T09:47:10;95606.88;;;17.59;84.13
69570;BME280;56781;42.292;23.146;2023-05-25T09:49:39;95605.47;;;17.25;83.30
69570;BME280;56781;42.292;23.146;2023-05-25T09:52:08;95632.06;;;17.23;90.10
69570;BME280;56781;42.292;23.146;2023-05-25T09:54:35;95626.78;;;17.14;91.41
69570;BME280;56781;42.292;23.146;2023-05-25T09:57:04;95631.50;;;17.17;92.18
69570;BME280;56781;42.292;23.146;2023-05-25T09:59:32;95627.84;;;17.50;90.38
69570;BME280;56781;42.292;23.146;2023-05-25T10:01:59;95613.25;;;18.07;82.78
69570;BME280;56781;42.292;23.146;2023-05-25T10:04:27;95594.81;;;18.41;74.59
69570;BME280;56781;42.292;23.146;2023-05-25T10:06:54;95599.09;;;18.58;74.97
69570;BME280;56781;42.292;23.146;2023-05-25T10:09:24;95605.56;;;18.53;69.78
69570;BME280;56781;42.292;23.146;2023-05-25T10:11:56;95607.22;;;18.42;70.69
69570;BME280;56781;42.292;23.146;2023-05-25T10:14:28;95593.88;;;18.65;71.02
69570;BME280;56781;42.292;23.146;2023-05-25T10:17:00;95603.22;;;18.52;72.42
69570;BME280;56781;42.292;23.146;2023-05-25T10:20:06;95625.28;;;18.82;71.19
69570;BME280;56781;42.292;23.146;2023-05-25T10:25:22;95618.38;;;19.52;75.27
69570;BME280;56781;42.292;23.146;2023-05-25T10:28:34;95624.59;;;20.07;75.22
69570;BME280;56781;42.292;23.146;2023-05-25T10:31:02;95638.34;;;20.14;72.86
69570;BME280;56781;42.292;23.146;2023-05-25T10:33:30;95632.09;;;20.33;70.47
69570;BME280;56781;42.292;23.146;2023-05-25T10:35:59;95607.38;;;20.61;74.56
69570;BME280;56781;42.292;23.146;2023-05-25T10:38:38;95632.31;;;20.90;73.78
69570;BME280;56781;42.292;23.146;2023-05-25T10:41:08;95622.41;;;20.78;70.78
69570;BME280;56781;42.292;23.146;2023-05-25T10:43:36;95631.47;;;20.63;68.98
69570;BME280;56781;42.292;23.146;2023-05-25T10:46:04;95620.63;;;20.24;72.01
69570;BME280;56781;42.292;23.146;2023-05-25T10:48:46;95629.56;;;20.63;69.84
69570;BME280;56781;42.292;23.146;2023-05-25T10:51:14;95631.19;;;20.48;68.12
69570;BME280;56781;42.292;23.146;2023-05-25T10:53:46;95615.28;;;20.08;68.79
69570;BME280;56781;42.292;23.146;2023-05-25T10:56:13;95628.72;;;20.40;69.46
69570;BME280;56781;42.292;23.146;2023-05-25T10:58:42;95595.81;;;20.68;66.67
69570;BME280;56781;42.292;23.146;2023-05-25T11:01:11;95609.06;;;20.69;68.75
69570;BME280;56781;42.292;23.146;2023-05-25T11:03:53;95586.25;;;20.77;68.95
69570;BME280;56781;42.292;23.146;2023-05-25T11:09:25;95612.53;;;21.39;64.07
69570;BME280;56781;42.292;23.146;2023-05-25T11:19:45;95580.56;;;22.30;63.16
69570;BME280;56781;42.292;23.146;2023-05-25T11:22:20;95578.66;;;22.75;59.13
69570;BME280;56781;42.292;23.146;2023-05-25T11:24:50;95570.47;;;22.75;60.11
69570;BME280;56781;42.292;23.146;2023-05-25T11:27:26;95581.50;;;21.77;57.47
69570;BME280;56781;42.292;23.146;2023-05-25T11:29:54;95583.16;;;21.85;58.11
69570;BME280;56781;42.292;23.146;2023-05-25T11:32:24;95572.13;;;22.42;59.70
69570;BME280;56781;42.292;23.146;2023-05-25T11:34:52;95564.09;;;23.05;58.33
69570;BME280;56781;42.292;23.146;2023-05-25T11:37:21;95574.13;;;22.49;55.80
69570;BME280;56781;42.292;23.146;2023-05-25T11:39:51;95567.59;;;23.05;57.55
69570;BME280;56781;42.292;23.146;2023-05-25T11:42:20;95563.13;;;23.38;56.39
69570;BME280;56781;42.292;23.146;2023-05-25T11:44:47;95565.41;;;23.29;54.26
69570;BME280;56781;42.292;23.146;2023-05-25T11:47:15;95580.94;;;23.17;53.91
69570;BME280;56781;42.292;23.146;2023-05-25T11:49:48;95565.41;;;23.29;52.40
69570;BME280;56781;42.292;23.146;2023-05-25T11:52:17;95570.75;;;23.73;51.29
69570;BME280;56781;42.292;23.146;2023-05-25T11:54:45;95560.41;;;24.36;49.90
69570;BME280;56781;42.292;23.146;2023-05-25T11:57:23;95567.50;;;25.34;48.55
69570;BME280;56781;42.292;23.146;2023-05-25T11:59:53;95574.09;;;25.61;50.27
69570;BME280;56781;42.292;23.146;2023-05-25T12:02:21;95548.63;;;25.72;50.58
69570;BME280;56781;42.292;23.146;2023-05-25T12:04:58;95556.53;;;25.45;50.76
69570;BME280;56781;42.292;23.146;2023-05-25T12:07:29;95565.19;;;25.00;48.18
69570;BME280;56781;42.292;23.146;2023-05-25T12:10:13;95541.69;;;25.24;50.19
69570;BME280;56781;42.292;23.146;2023-05-25T12:12:48;95538.56;;;25.26;47.72
69570;BME280;56781;42.292;23.146;2023-05-25T12:15:19;95537.41;;;24.69;50.43
69570;BME280;56781;42.292;23.146;2023-05-25T12:17:48;95548.63;;;24.18;54.35
69570;BME280;56781;42.292;23.146;2023-05-25T12:20:16;95546.06;;;23.59;54.38
69570;BME280;56781;42.292;23.146;2023-05-25T12:22:45;95545.91;;;23.27;59.04
69570;BME280;56781;42.292;23.146;2023-05-25T12:25:13;95545.84;;;23.16;58.01
69570;BME280;56781;42.292;23.146;2023-05-25T12:27:41;95559.91;;;22.70;60.71
69570;BME280;56781;42.292;23.146;2023-05-25T12:30:10;95541.13;;;22.65;64.14
69570;BME280;56781;42.292;23.146;2023-05-25T12:33:00;95539.53;;;23.05;61.02
69570;BME280;56781;42.292;23.146;2023-05-25T12:35:46;95528.41;;;23.38;60.29
69570;BME280;56781;42.292;23.146;2023-05-25T12:38:18;95527.44;;;23.75;62.20
69570;BME280;56781;42.292;23.146;2023-05-25T12:41:03;95533.75;;;24.01;60.04
69570;BME280;56781;42.292;23.146;2023-05-25T12:43:38;95531.53;;;24.71;56.91
69570;BME280;56781;42.292;23.146;2023-05-25T12:46:05;95502.53;;;24.16;58.58
69570;BME280;56781;42.292;23.146;2023-05-25T12:48:33;95500.63;;;24.74;55.95
69570;BME280;56781;42.292;23.146;2023-05-25T12:51:00;95518.63;;;24.93;55.16
69570;BME280;56781;42.292;23.146;2023-05-25T12:53:27;95512.00;;;24.54;57.45
69570;BME280;56781;42.292;23.146;2023-05-25T12:56:01;95503.00;;;24.68;52.54
69570;BME280;56781;42.292;23.146;2023-05-25T12:58:28;95507.25;;;24.33;57.92
69570;BME280;56781;42.292;23.146;2023-05-25T13:00:55;95517.06;;;24.63;58.82
69570;BME280;56781;42.292;23.146;2023-05-25T13:03:23;95521.69;;;24.34;58.21
69570;BME280;56781;42.292;23.146;2023-05-25T13:05:50;95517.97;;;23.62;58.71
69570;BME280;56781;42.292;23.146;2023-05-25T13:08:17;95513.00;;;23.09;62.13
69570;BME280;56781;42.292;23.146;2023-05-25T13:10:49;95515.44;;;23.21;64.45
69570;BME280;56781;42.292;23.146;2023-05-25T13:13:17;95520.75;;;22.99;62.19
69570;BME280;56781;42.292;23.146;2023-05-25T13:15:44;95523.75;;;22.84;63.85
69570;BME280;56781;42.292;23.146;2023-05-25T13:18:11;95507.88;;;22.48;62.52
69570;BME280;56781;42.292;23.146;2023-05-25T13:20:38;95516.19;;;22.66;62.79
69570;BME280;56781;42.292;23.146;2023-05-25T13:23:05;95523.56;;;22.59;62.00
69570;BME280;56781;42.292;23.146;2023-05-25T13:25:32;95513.81;;;23.13;63.11
69570;BME280;56781;42.292;23.146;2023-05-25T13:27:59;95506.53;;;23.35;61.43
69570;BME280;56781;42.292;23.146;2023-05-25T13:30:27;95503.94;;;23.71;60.22